createdAt,value
2016-12-25T00:00:17.249Z,1021.7
2016-12-25T00:01:20.694Z,1021.7
2016-12-25T00:02:23.637Z,1021.8
2016-12-25T00:03:27.084Z,1021.8
2016-12-25T00:04:30.525Z,1021.8
2016-12-25T00:05:33.469Z,1021.7
2016-12-25T00:06:36.915Z,1021.8
2016-12-25T00:07:39.849Z,1021.8
2016-12-25T00:08:43.294Z,1021.7
2016-12-25T00:09:46.231Z,1021.7
2016-12-25T00:10:49.675Z,1021.7
2016-12-25T00:11:53.119Z,1021.7
2016-12-25T00:12:56.062Z,1021.7
2016-12-25T00:13:59.507Z,1021.8
2016-12-25T00:15:02.443Z,1021.8
2016-12-25T00:16:05.899Z,1021.8
2016-12-25T00:17:09.350Z,1021.8
2016-12-25T00:19:15.708Z,1021.8
2016-12-25T00:20:18.657Z,1021.8
2016-12-25T00:21:22.331Z,1021.9
2016-12-25T00:22:25.272Z,1021.9
2016-12-25T00:23:28.712Z,1021.8
2016-12-25T00:24:31.697Z,1021.8
2016-12-25T00:25:34.834Z,1021.8
2016-12-25T00:26:38.283Z,1021.7
2016-12-25T00:27:41.731Z,1021.8
2016-12-25T00:28:44.703Z,1021.7
2016-12-25T00:29:48.158Z,1021.9
2016-12-25T00:30:51.106Z,1021.8
2016-12-25T00:31:54.696Z,1021.9
2016-12-25T00:32:57.638Z,1021.9
2016-12-25T00:35:03.994Z,1021.9
2016-12-25T00:36:07.450Z,1021.9
2016-12-25T00:37:10.899Z,1021.8
2016-12-25T00:38:13.840Z,1021.8
2016-12-25T00:39:17.286Z,1021.8
2016-12-25T00:40:20.231Z,1021.8
2016-12-25T00:41:23.681Z,1021.7
2016-12-25T00:42:27.127Z,1021.6
2016-12-25T00:43:30.066Z,1021.7
2016-12-25T00:44:33.510Z,1021.8
2016-12-25T00:45:36.456Z,1021.8
2016-12-25T00:46:39.902Z,1021.8
2016-12-25T00:47:43.346Z,1021.8
2016-12-25T00:48:46.293Z,1021.8
2016-12-25T00:49:49.741Z,1021.7
2016-12-25T00:50:52.681Z,1021.6
2016-12-25T00:51:56.123Z,1021.7
2016-12-25T00:52:59.565Z,1021.7
2016-12-25T00:54:02.514Z,1021.7
2016-12-25T00:55:05.813Z,1021.6
2016-12-25T00:56:08.892Z,1021.6
2016-12-25T00:57:12.337Z,1021.5
2016-12-25T00:58:15.778Z,1021.5
2016-12-25T00:59:18.714Z,1021.6
2016-12-25T01:00:22.164Z,1021.6
2016-12-25T01:01:25.106Z,1021.7
2016-12-25T01:02:28.555Z,1021.5
2016-12-25T01:03:31.995Z,1021.6
2016-12-25T01:04:34.936Z,1021.6
2016-12-25T01:05:38.386Z,1021.6
2016-12-25T01:06:41.327Z,1021.6
2016-12-25T01:07:44.768Z,1021.5
2016-12-25T01:08:48.219Z,1021.5
2016-12-25T01:09:51.191Z,1021.6
2016-12-25T01:11:57.554Z,1021.5
2016-12-25T01:13:00.999Z,1021.5
2016-12-25T01:14:04.451Z,1021.6
2016-12-25T01:15:07.393Z,1021.6
2016-12-25T01:16:10.837Z,1021.5
2016-12-25T01:17:13.780Z,1021.5
2016-12-25T01:19:20.665Z,1021.5
2016-12-25T01:20:23.613Z,1021.3
2016-12-25T01:21:27.054Z,1021.4
2016-12-25T01:22:30.495Z,1021.4
2016-12-25T01:23:33.433Z,1021.3
2016-12-25T01:24:36.874Z,1021.3
2016-12-25T01:25:39.812Z,1021.4
2016-12-25T01:26:43.256Z,1021.4
2016-12-25T01:27:46.708Z,1021.4
2016-12-25T01:28:49.648Z,1021.5
2016-12-25T01:29:53.092Z,1021.4
2016-12-25T01:30:56.037Z,1021.4
2016-12-25T01:31:59.486Z,1021.4
2016-12-25T01:33:02.928Z,1021.3
2016-12-25T01:34:05.868Z,1021.2
2016-12-25T01:35:09.318Z,1021.3
2016-12-25T01:36:12.395Z,1021.2
2016-12-25T01:37:15.841Z,1021.2
2016-12-25T01:38:18.785Z,1021.4
2016-12-25T01:39:22.230Z,1021.3
2016-12-25T01:40:25.678Z,1021.3
2016-12-25T01:41:28.622Z,1021.3
2016-12-25T01:42:32.066Z,1021.3
2016-12-25T01:43:35.016Z,1021.2
2016-12-25T01:44:38.456Z,1021.3
2016-12-25T01:45:41.897Z,1021.4
2016-12-25T01:46:44.834Z,1021.4
2016-12-25T01:47:48.288Z,1021.4
2016-12-25T01:48:51.228Z,1021.4
2016-12-25T01:49:54.678Z,1021.5
2016-12-25T01:50:58.124Z,1021.5
2016-12-25T01:52:01.071Z,1021.5
2016-12-25T01:53:04.517Z,1021.5
2016-12-25T01:54:07.459Z,1021.6
2016-12-25T01:55:10.907Z,1021.5
2016-12-25T01:56:14.351Z,1021.4
2016-12-25T01:57:17.294Z,1021.5
2016-12-25T01:58:20.746Z,1021.4
2016-12-25T01:59:23.684Z,1021.4
2016-12-25T02:00:27.130Z,1021.3
2016-12-25T02:02:33.487Z,1021.2
2016-12-25T02:03:36.968Z,1021.2
2016-12-25T02:04:39.909Z,1021.2
2016-12-25T02:05:43.361Z,1021.2
2016-12-25T02:06:46.803Z,1021.2
2016-12-25T02:07:49.745Z,1021.3
2016-12-25T02:08:53.189Z,1021.3
2016-12-25T02:09:56.130Z,1021.3
2016-12-25T02:10:59.576Z,1021.3
2016-12-25T02:12:03.025Z,1021.2
2016-12-25T02:13:05.966Z,1021.1
2016-12-25T02:14:09.407Z,1021.2
2016-12-25T02:15:12.351Z,1021.2
2016-12-25T02:16:15.807Z,1021.1
2016-12-25T02:17:19.254Z,1021.1
2016-12-25T02:18:22.203Z,1021
2016-12-25T02:19:25.652Z,1021
2016-12-25T02:20:28.597Z,1021.1
2016-12-25T02:21:32.037Z,1021.1
2016-12-25T02:22:35.479Z,1021
2016-12-25T02:23:38.419Z,1021
2016-12-25T02:24:41.872Z,1021.1
2016-12-25T02:25:44.841Z,1021.1
2016-12-25T02:26:48.286Z,1021.1
2016-12-25T02:27:51.728Z,1021.1
2016-12-25T02:28:54.670Z,1021.2
2016-12-25T02:29:58.115Z,1021.1
2016-12-25T02:31:01.192Z,1021.1
2016-12-25T02:32:04.638Z,1021.2
2016-12-25T02:33:07.591Z,1021.2
2016-12-25T02:34:11.040Z,1021.2
2016-12-25T02:35:14.485Z,1021.2
2016-12-25T02:36:17.431Z,1021.2
2016-12-25T02:37:21.023Z,1021.2
2016-12-25T02:38:23.965Z,1021.3
2016-12-25T02:39:27.410Z,1021.3
2016-12-25T02:40:30.359Z,1021.3
2016-12-25T02:41:33.803Z,1021.3
2016-12-25T02:42:37.246Z,1021.2
2016-12-25T02:43:40.186Z,1021.1
2016-12-25T02:44:43.626Z,1021.2
2016-12-25T02:45:47.064Z,1021.1
2016-12-25T02:46:50.005Z,1021
2016-12-25T02:47:53.450Z,1021
2016-12-25T02:48:56.390Z,1020.9
2016-12-25T02:49:59.836Z,1021
2016-12-25T02:51:03.277Z,1021
2016-12-25T02:52:06.223Z,1021
2016-12-25T02:53:09.667Z,1021
2016-12-25T02:54:13.114Z,1021
2016-12-25T02:55:16.081Z,1020.9
2016-12-25T02:56:19.530Z,1021
2016-12-25T02:57:22.471Z,1021
2016-12-25T02:58:25.922Z,1021
2016-12-25T02:59:29.372Z,1021
2016-12-25T03:00:32.314Z,1021
2016-12-25T03:01:35.759Z,1020.9
2016-12-25T03:02:38.704Z,1020.9
2016-12-25T03:03:42.149Z,1021
2016-12-25T03:04:45.602Z,1021
2016-12-25T03:05:48.547Z,1021.1
2016-12-25T03:06:51.992Z,1021.1
2016-12-25T03:07:54.937Z,1021
2016-12-25T03:08:58.382Z,1021
2016-12-25T03:10:01.459Z,1021
2016-12-25T03:11:04.914Z,1021
2016-12-25T03:12:08.389Z,1021
2016-12-25T03:13:11.333Z,1021
2016-12-25T03:15:17.749Z,1021
2016-12-25T03:16:21.190Z,1021
2016-12-25T03:17:24.632Z,1021
2016-12-25T03:18:27.577Z,1021
2016-12-25T03:19:31.032Z,1021
2016-12-25T03:20:33.979Z,1021
2016-12-25T03:21:37.424Z,1020.9
2016-12-25T03:22:40.873Z,1021
2016-12-25T03:23:43.811Z,1021
2016-12-25T03:24:47.280Z,1021
2016-12-25T03:25:50.217Z,1021
2016-12-25T03:26:53.730Z,1021
2016-12-25T03:27:57.174Z,1021
2016-12-25T03:29:00.116Z,1020.9
2016-12-25T03:30:03.565Z,1020.9
2016-12-25T03:31:06.506Z,1020.9
2016-12-25T03:32:09.955Z,1020.9
2016-12-25T03:33:13.400Z,1020.8
2016-12-25T03:34:16.341Z,1020.8
2016-12-25T03:35:19.790Z,1020.9
2016-12-25T03:36:23.236Z,1020.9
2016-12-25T03:37:26.176Z,1021
2016-12-25T03:38:29.623Z,1021
2016-12-25T03:39:32.562Z,1021
2016-12-25T03:40:36.006Z,1021
2016-12-25T03:41:39.456Z,1021
2016-12-25T03:42:42.392Z,1021
2016-12-25T03:43:45.836Z,1021
2016-12-25T03:44:49.279Z,1021
2016-12-25T03:45:52.220Z,1021
2016-12-25T03:46:55.667Z,1021
2016-12-25T03:47:58.612Z,1020.9
2016-12-25T03:49:02.063Z,1020.9
2016-12-25T03:50:05.507Z,1020.9
2016-12-25T03:51:08.443Z,1020.9
2016-12-25T03:52:11.886Z,1021
2016-12-25T03:53:15.332Z,1020.9
2016-12-25T03:54:18.277Z,1020.9
2016-12-25T03:56:24.633Z,1020.8
2016-12-25T03:57:28.078Z,1020.9
2016-12-25T03:58:31.522Z,1021
2016-12-25T03:59:34.464Z,1020.9
2016-12-25T04:00:37.919Z,1020.9
2016-12-25T04:01:41.370Z,1021
2016-12-25T04:02:44.319Z,1021
2016-12-25T04:03:47.762Z,1021
2016-12-25T04:04:50.709Z,1020.9
2016-12-25T04:05:54.182Z,1021
2016-12-25T04:06:57.657Z,1021.1
2016-12-25T04:08:00.600Z,1021
2016-12-25T04:09:04.060Z,1021
2016-12-25T04:10:07.005Z,1021
2016-12-25T04:12:13.863Z,1020.9
2016-12-25T04:13:16.808Z,1020.9
2016-12-25T04:14:20.251Z,1020.8
2016-12-25T04:16:26.609Z,1020.9
2016-12-25T04:18:33.480Z,1020.9
2016-12-25T04:19:36.425Z,1021
2016-12-25T04:20:39.871Z,1020.9
2016-12-25T04:21:42.822Z,1021
2016-12-25T04:23:49.679Z,1021.1
2016-12-25T04:24:52.628Z,1021.1
2016-12-25T04:25:56.110Z,1021.1
2016-12-25T04:26:59.054Z,1021.1
2016-12-25T04:28:02.500Z,1021.1
2016-12-25T04:29:05.949Z,1021.1
2016-12-25T04:30:08.891Z,1021.2
2016-12-25T04:32:15.756Z,1021.2
2016-12-25T04:33:18.696Z,1021.3
2016-12-25T04:34:22.141Z,1021.2
2016-12-25T04:35:25.082Z,1021.3
2016-12-25T04:36:28.523Z,1021.2
2016-12-25T04:37:31.968Z,1021.3
2016-12-25T04:38:34.913Z,1021.3
2016-12-25T04:39:38.369Z,1021.3
2016-12-25T04:40:41.839Z,1021.3
2016-12-25T04:42:48.192Z,1021.4
2016-12-25T04:43:51.135Z,1021.3
2016-12-25T04:44:54.582Z,1021.4
2016-12-25T04:45:58.026Z,1021.4
2016-12-25T04:47:00.968Z,1021.5
2016-12-25T04:48:04.412Z,1021.5
2016-12-25T04:49:07.862Z,1021.5
2016-12-25T04:50:10.802Z,1021.5
2016-12-25T04:51:14.250Z,1021.6
2016-12-25T04:52:17.204Z,1021.6
2016-12-25T04:53:20.653Z,1021.6
2016-12-25T04:54:24.094Z,1021.6
2016-12-25T04:55:27.036Z,1021.6
2016-12-25T04:57:33.904Z,1021.5
2016-12-25T04:58:36.849Z,1021.5
2016-12-25T04:59:40.304Z,1021.6
2016-12-25T05:00:43.241Z,1021.6
2016-12-25T05:01:46.691Z,1021.5
2016-12-25T05:02:50.133Z,1021.4
2016-12-25T05:03:53.077Z,1021.5
2016-12-25T05:04:56.665Z,1021.4
2016-12-25T05:05:59.606Z,1021.5
2016-12-25T05:07:03.062Z,1021.4
2016-12-25T05:08:06.007Z,1021.5
2016-12-25T05:09:09.468Z,1021.5
2016-12-25T05:10:12.913Z,1021.5
2016-12-25T05:11:15.858Z,1021.5
2016-12-25T05:12:19.970Z,1021.5
2016-12-25T05:13:22.747Z,1021.5
2016-12-25T05:14:25.686Z,1021.4
2016-12-25T05:15:29.135Z,1021.4
2016-12-25T05:16:32.080Z,1021.4
2016-12-25T05:17:35.524Z,1021.4
2016-12-25T05:18:38.965Z,1021.3
2016-12-25T05:19:41.906Z,1021.3
2016-12-25T05:20:45.359Z,1021.4
2016-12-25T05:21:48.812Z,1021.3
2016-12-25T05:23:55.182Z,1021.3
2016-12-25T05:24:58.132Z,1021.3
2016-12-25T05:26:01.589Z,1021.3
2016-12-25T05:27:05.045Z,1021.2
2016-12-25T05:28:07.991Z,1021.2
2016-12-25T05:29:11.439Z,1021.2
2016-12-25T05:30:14.895Z,1021.3
2016-12-25T05:31:17.838Z,1021.2
2016-12-25T05:32:20.937Z,1021.3
2016-12-25T05:33:24.392Z,1021.2
2016-12-25T05:34:27.841Z,1021.3
2016-12-25T05:35:30.787Z,1021.3
2016-12-25T05:36:34.238Z,1021.3
2016-12-25T05:37:37.321Z,1021.3
2016-12-25T05:38:40.847Z,1021.4
2016-12-25T05:39:43.796Z,1021.3
2016-12-25T05:41:50.295Z,1021.4
2016-12-25T05:42:53.747Z,1021.3
2016-12-25T05:43:57.197Z,1021.3
2016-12-25T05:45:00.142Z,1021.2
2016-12-25T05:46:03.585Z,1021.2
2016-12-25T05:47:07.035Z,1021.3
2016-12-25T05:48:09.980Z,1021.2
2016-12-25T05:49:13.430Z,1021.3
2016-12-25T05:50:16.378Z,1021.2
2016-12-25T05:51:19.831Z,1021.2
2016-12-25T05:52:22.848Z,1021.2
2016-12-25T05:54:29.705Z,1021.3
2016-12-25T05:55:32.655Z,1021.3
2016-12-25T05:56:36.105Z,1021.2
2016-12-25T05:57:39.560Z,1021.2
2016-12-25T05:58:42.509Z,1021.1
2016-12-25T05:59:45.983Z,1021.2
2016-12-25T06:00:48.939Z,1021.2
2016-12-25T06:01:52.388Z,1021.2
2016-12-25T06:02:55.845Z,1021.2
2016-12-25T06:03:58.790Z,1021.2
2016-12-25T06:05:02.239Z,1021.2
2016-12-25T06:06:05.698Z,1021.2
2016-12-25T06:08:12.195Z,1021.2
2016-12-25T06:09:15.176Z,1021.2
2016-12-25T06:10:18.625Z,1021.3
2016-12-25T06:11:21.570Z,1021.2
2016-12-25T06:13:28.431Z,1021.2
2016-12-25T06:14:31.376Z,1021.2
2016-12-25T06:15:34.826Z,1021.2
2016-12-25T06:16:38.285Z,1021.2
2016-12-25T06:17:41.239Z,1021.2
2016-12-25T06:18:44.688Z,1021.1
2016-12-25T06:19:47.631Z,1021.2
2016-12-25T06:20:51.078Z,1021.2
2016-12-25T06:21:54.534Z,1021.1
2016-12-25T06:22:57.495Z,1021.2
2016-12-25T06:24:01.077Z,1021.2
2016-12-25T06:25:04.026Z,1021.2
2016-12-25T06:26:07.475Z,1021.1
2016-12-25T06:27:10.919Z,1021.1
2016-12-25T06:28:13.865Z,1021
2016-12-25T06:29:17.317Z,1021.1
2016-12-25T06:30:20.263Z,1021.1
2016-12-25T06:31:23.711Z,1021
2016-12-25T06:33:30.074Z,1020.9
2016-12-25T06:34:33.551Z,1020.9
2016-12-25T06:35:37.008Z,1020.9
2016-12-25T06:36:39.956Z,1020.9
2016-12-25T06:37:43.406Z,1021
2016-12-25T06:38:46.351Z,1021
2016-12-25T06:39:49.801Z,1021
2016-12-25T06:40:53.261Z,1021
2016-12-25T06:41:56.208Z,1020.9
2016-12-25T06:42:59.728Z,1021
2016-12-25T06:44:02.672Z,1021
2016-12-25T06:45:06.123Z,1021.1
2016-12-25T06:46:09.576Z,1021
2016-12-25T06:47:12.523Z,1021
2016-12-25T06:48:15.986Z,1021
2016-12-25T06:49:18.933Z,1021
2016-12-25T06:50:22.378Z,1021.1
2016-12-25T06:51:25.822Z,1021.2
2016-12-25T06:52:28.766Z,1021.1
2016-12-25T06:53:32.219Z,1021.2
2016-12-25T06:55:38.584Z,1021.2
2016-12-25T06:56:42.033Z,1021.2
2016-12-25T06:57:45.479Z,1021.2
2016-12-25T06:58:48.424Z,1021.2
2016-12-25T06:59:51.881Z,1021.1
2016-12-25T07:00:54.824Z,1021.2
2016-12-25T07:01:58.274Z,1021.2
2016-12-25T07:03:01.739Z,1021.2
2016-12-25T07:04:04.692Z,1021.2
2016-12-25T07:06:11.562Z,1021.3
2016-12-25T07:07:14.516Z,1021.2
2016-12-25T07:09:21.009Z,1021.2
2016-12-25T07:10:24.460Z,1021.2
2016-12-25T07:11:27.910Z,1021.2
2016-12-25T07:12:30.855Z,1021.1
2016-12-25T07:13:34.368Z,1021.1
2016-12-25T07:14:37.313Z,1021
2016-12-25T07:15:40.774Z,1021.1
2016-12-25T07:16:44.220Z,1021.1
2016-12-25T07:17:47.162Z,1021.1
2016-12-25T07:18:50.612Z,1021.1
2016-12-25T07:19:53.561Z,1021.1
2016-12-25T07:20:57.014Z,1021.1
2016-12-25T07:22:00.463Z,1021.1
2016-12-25T07:23:03.414Z,1021.2
2016-12-25T07:24:06.871Z,1021.2
2016-12-25T07:25:10.328Z,1021.2
2016-12-25T07:26:13.273Z,1021.3
2016-12-25T07:27:16.721Z,1021.2
2016-12-25T07:28:20.171Z,1021.3
2016-12-25T07:29:23.121Z,1021.3
2016-12-25T07:30:26.578Z,1021.3
2016-12-25T07:31:29.524Z,1021.3
2016-12-25T07:32:32.976Z,1021.3
2016-12-25T07:33:36.430Z,1021.4
2016-12-25T07:34:39.380Z,1021.4
2016-12-25T07:35:42.897Z,1021.4
2016-12-25T07:36:45.843Z,1021.4
2016-12-25T07:37:49.295Z,1021.4
2016-12-25T07:38:52.745Z,1021.4
2016-12-25T07:39:55.710Z,1021.3
2016-12-25T07:40:59.160Z,1021.4
2016-12-25T07:42:02.616Z,1021.3
2016-12-25T07:43:05.560Z,1021.4
2016-12-25T07:44:09.011Z,1021.3
2016-12-25T07:45:11.966Z,1021.3
2016-12-25T07:46:15.414Z,1021.3
2016-12-25T07:47:18.860Z,1021.4
2016-12-25T07:48:21.805Z,1021.3
2016-12-25T07:49:25.263Z,1021.3
2016-12-25T07:50:28.715Z,1021.3
2016-12-25T07:51:31.661Z,1021.4
2016-12-25T07:52:35.115Z,1021.4
2016-12-25T07:53:38.060Z,1021.4
2016-12-25T07:54:41.505Z,1021.4
2016-12-25T07:55:44.953Z,1021.4
2016-12-25T07:56:47.907Z,1021.4
2016-12-25T07:57:51.362Z,1021.4
2016-12-25T07:58:54.813Z,1021.4
2016-12-25T07:59:57.764Z,1021.4
2016-12-25T08:01:01.214Z,1021.5
2016-12-25T08:02:04.671Z,1021.5
2016-12-25T08:03:07.620Z,1021.5
2016-12-25T08:04:11.070Z,1021.5
2016-12-25T08:05:14.019Z,1021.5
2016-12-25T08:06:17.469Z,1021.6
2016-12-25T08:07:20.922Z,1021.6
2016-12-25T08:08:23.875Z,1021.7
2016-12-25T08:09:27.328Z,1021.6
2016-12-25T08:10:30.782Z,1021.6
2016-12-25T08:11:33.724Z,1021.7
2016-12-25T08:12:37.173Z,1021.6
2016-12-25T08:14:43.540Z,1021.7
2016-12-25T08:15:46.992Z,1021.6
2016-12-25T08:16:49.943Z,1021.7
2016-12-25T08:17:53.393Z,1021.7
2016-12-25T08:18:56.844Z,1021.6
2016-12-25T08:19:59.800Z,1021.6
2016-12-25T08:21:03.251Z,1021.6
2016-12-25T08:22:06.702Z,1021.7
2016-12-25T08:23:09.652Z,1021.6
2016-12-25T08:24:13.104Z,1021.6
2016-12-25T08:25:16.550Z,1021.7
2016-12-25T08:26:19.509Z,1021.7
2016-12-25T08:27:22.957Z,1021.6
2016-12-25T08:28:25.900Z,1021.6
2016-12-25T08:29:29.353Z,1021.6
2016-12-25T08:31:35.770Z,1021.5
2016-12-25T08:32:39.180Z,1021.5
2016-12-25T08:33:42.633Z,1021.5
2016-12-25T08:34:45.579Z,1021.5
2016-12-25T08:35:49.030Z,1021.5
2016-12-25T08:36:52.042Z,1021.5
2016-12-25T08:37:55.491Z,1021.6
2016-12-25T08:38:58.974Z,1021.6
2016-12-25T08:40:01.924Z,1021.6
2016-12-25T08:41:05.380Z,1021.6
2016-12-25T08:42:08.829Z,1021.6
2016-12-25T08:43:11.775Z,1021.7
2016-12-25T08:44:15.361Z,1021.5
2016-12-25T08:45:18.307Z,1021.6
2016-12-25T08:46:21.769Z,1021.6
2016-12-25T08:47:24.718Z,1021.6
2016-12-25T08:48:28.168Z,1021.7
2016-12-25T08:49:31.616Z,1021.6
2016-12-25T08:50:34.566Z,1021.6
2016-12-25T08:51:38.027Z,1021.5
2016-12-25T08:52:41.477Z,1021.5
2016-12-25T08:53:44.419Z,1021.6
2016-12-25T08:54:47.869Z,1021.5
2016-12-25T08:55:51.327Z,1021.5
2016-12-25T08:56:54.272Z,1021.4
2016-12-25T08:57:57.729Z,1021.5
2016-12-25T08:59:01.178Z,1021.5
2016-12-25T09:00:04.128Z,1021.5
2016-12-25T09:01:07.578Z,1021.5
2016-12-25T09:02:10.529Z,1021.6
2016-12-25T09:03:13.980Z,1021.6
2016-12-25T09:04:17.063Z,1021.7
2016-12-25T09:05:20.514Z,1021.6
2016-12-25T09:06:23.971Z,1021.6
2016-12-25T09:07:26.921Z,1021.5
2016-12-25T09:08:30.370Z,1021.4
2016-12-25T09:09:33.831Z,1021.4
2016-12-25T09:10:36.781Z,1021.5
2016-12-25T09:11:40.234Z,1021.5
2016-12-25T09:12:43.683Z,1021.4
2016-12-25T09:13:46.626Z,1021.4
2016-12-25T09:14:50.076Z,1021.4
2016-12-25T09:15:53.049Z,1021.4
2016-12-25T09:16:56.507Z,1021.4
2016-12-25T09:17:59.964Z,1021.4
2016-12-25T09:19:02.921Z,1021.5
2016-12-25T09:20:06.398Z,1021.5
2016-12-25T09:21:09.853Z,1021.5
2016-12-25T09:22:12.802Z,1021.5
2016-12-25T09:23:16.251Z,1021.5
2016-12-25T09:24:19.202Z,1021.6
2016-12-25T09:25:22.651Z,1021.6
2016-12-25T09:26:26.100Z,1021.6
2016-12-25T09:27:29.051Z,1021.6
2016-12-25T09:28:32.499Z,1021.6
2016-12-25T09:29:35.948Z,1021.6
2016-12-25T09:30:38.893Z,1021.6
2016-12-25T09:31:42.348Z,1021.5
2016-12-25T09:32:45.797Z,1021.6
2016-12-25T09:33:48.744Z,1021.5
2016-12-25T09:34:52.197Z,1021.5
2016-12-25T09:35:55.647Z,1021.5
2016-12-25T09:36:58.593Z,1021.5
2016-12-25T09:38:02.038Z,1021.5
2016-12-25T09:39:04.988Z,1021.4
2016-12-25T09:40:08.446Z,1021.4
2016-12-25T09:41:11.903Z,1021.3
2016-12-25T09:42:14.850Z,1021.4
2016-12-25T09:43:18.303Z,1021.4
2016-12-25T09:44:21.757Z,1021.4
2016-12-25T09:45:24.701Z,1021.4
2016-12-25T09:46:28.154Z,1021.3
2016-12-25T09:47:31.605Z,1021.5
2016-12-25T09:48:34.553Z,1021.5
2016-12-25T09:49:38.014Z,1021.5
2016-12-25T09:50:40.961Z,1021.5
2016-12-25T09:51:44.410Z,1021.5
2016-12-25T09:52:47.860Z,1021.5
2016-12-25T09:53:50.806Z,1021.5
2016-12-25T09:54:54.253Z,1021.6
2016-12-25T09:55:57.706Z,1021.6
2016-12-25T09:57:00.650Z,1021.6
2016-12-25T09:58:04.098Z,1021.5
2016-12-25T09:59:07.551Z,1021.5
2016-12-25T10:00:10.502Z,1021.6
2016-12-25T10:01:13.956Z,1021.6
2016-12-25T10:02:16.909Z,1021.6
2016-12-25T10:04:23.766Z,1021.5
2016-12-25T10:05:27.215Z,1021.6
2016-12-25T10:06:30.171Z,1021.5
2016-12-25T10:07:33.619Z,1021.5
2016-12-25T10:08:36.563Z,1021.5
2016-12-25T10:09:40.021Z,1021.5
2016-12-25T10:10:43.470Z,1021.5
2016-12-25T10:11:46.412Z,1021.6
2016-12-25T10:12:49.861Z,1021.5
2016-12-25T10:13:53.311Z,1021.6
2016-12-25T10:14:56.257Z,1021.6
2016-12-25T10:15:59.711Z,1021.5
2016-12-25T10:17:03.167Z,1021.6
2016-12-25T10:18:06.114Z,1021.6
2016-12-25T10:19:09.659Z,1021.7
2016-12-25T10:20:12.614Z,1021.7
2016-12-25T10:21:16.094Z,1021.6
2016-12-25T10:22:19.543Z,1021.7
2016-12-25T10:23:22.493Z,1021.6
2016-12-25T10:24:25.947Z,1021.6
2016-12-25T10:25:28.894Z,1021.6
2016-12-25T10:26:32.343Z,1021.6
2016-12-25T10:27:35.797Z,1021.5
2016-12-25T10:28:38.747Z,1021.6
2016-12-25T10:29:42.195Z,1021.5
2016-12-25T10:30:45.652Z,1021.5
2016-12-25T10:31:48.598Z,1021.5
2016-12-25T10:32:52.052Z,1021.5
2016-12-25T10:33:55.505Z,1021.6
2016-12-25T10:34:58.451Z,1021.5
2016-12-25T10:36:01.563Z,1021.5
2016-12-25T10:37:05.014Z,1021.6
2016-12-25T10:38:08.465Z,1021.5
2016-12-25T10:39:11.412Z,1021.5
2016-12-25T10:40:14.866Z,1021.5
2016-12-25T10:41:18.320Z,1021.5
2016-12-25T10:42:21.272Z,1021.5
2016-12-25T10:43:24.763Z,1021.5
2016-12-25T10:44:27.854Z,1021.5
2016-12-25T10:45:31.304Z,1021.5
2016-12-25T10:46:34.253Z,1021.5
2016-12-25T10:47:37.702Z,1021.5
2016-12-25T10:48:41.157Z,1021.5
2016-12-25T10:49:44.102Z,1021.5
2016-12-25T10:50:47.549Z,1021.5
2016-12-25T10:51:51.001Z,1021.5
2016-12-25T10:52:53.976Z,1021.5
2016-12-25T10:53:57.430Z,1021.5
2016-12-25T10:55:00.887Z,1021.5
2016-12-25T10:56:03.838Z,1021.5
2016-12-25T10:59:13.613Z,1021.6
2016-12-25T11:00:17.059Z,1021.6
2016-12-25T11:01:20.513Z,1021.6
2016-12-25T11:02:23.458Z,1021.6
2016-12-25T11:03:26.907Z,1021.6
2016-12-25T11:04:29.854Z,1021.6
2016-12-25T11:05:33.307Z,1021.6
2016-12-25T11:06:36.762Z,1021.6
2016-12-25T11:07:39.713Z,1021.6
2016-12-25T11:08:43.172Z,1021.6
2016-12-25T11:09:46.623Z,1021.6
2016-12-25T11:10:49.569Z,1021.6
2016-12-25T11:11:53.018Z,1021.6
2016-12-25T11:12:56.467Z,1021.7
2016-12-25T11:13:59.418Z,1021.7
2016-12-25T11:15:02.879Z,1021.7
2016-12-25T11:16:05.833Z,1021.7
2016-12-25T11:17:09.278Z,1021.8
2016-12-25T11:18:12.728Z,1021.8
2016-12-25T11:19:15.674Z,1021.8
2016-12-25T11:20:19.122Z,1021.8
2016-12-25T11:21:22.570Z,1021.8
2016-12-25T11:22:25.519Z,1021.8
2016-12-25T11:23:28.969Z,1021.8
2016-12-25T11:24:32.422Z,1021.9
2016-12-25T11:25:35.372Z,1021.9
2016-12-25T11:26:38.825Z,1021.9
2016-12-25T11:27:42.277Z,1021.9
2016-12-25T11:28:45.221Z,1021.9
2016-12-25T11:29:48.674Z,1021.9
2016-12-25T11:30:52.124Z,1022
2016-12-25T11:31:55.066Z,1022
2016-12-25T11:32:58.515Z,1022
2016-12-25T11:34:01.475Z,1022.2
2016-12-25T11:35:04.931Z,1022
2016-12-25T11:36:08.385Z,1022
2016-12-25T11:37:11.326Z,1022.2
2016-12-25T11:38:14.776Z,1022.2
2016-12-25T11:39:18.225Z,1022.2
2016-12-25T11:40:21.176Z,1022.3
2016-12-25T11:41:24.626Z,1022.4
2016-12-25T11:42:28.078Z,1022.4
2016-12-25T11:43:31.029Z,1022.5
2016-12-25T11:44:34.482Z,1022.5
2016-12-25T11:45:37.935Z,1022.6
2016-12-25T11:46:40.881Z,1022.6
2016-12-25T11:47:44.327Z,1022.7
2016-12-25T11:48:47.782Z,1022.7
2016-12-25T11:49:50.734Z,1022.7
2016-12-25T11:50:54.208Z,1022.7
2016-12-25T11:51:57.158Z,1022.7
2016-12-25T11:53:00.607Z,1022.7
2016-12-25T11:54:04.052Z,1022.8
2016-12-25T11:55:07.003Z,1022.8
2016-12-25T11:56:10.452Z,1022.8
2016-12-25T11:57:13.901Z,1022.9
2016-12-25T11:58:16.847Z,1022.9
2016-12-25T11:59:20.296Z,1022.9
2016-12-25T12:00:23.755Z,1023
2016-12-25T12:01:26.704Z,1023
2016-12-25T12:02:30.154Z,1023
2016-12-25T12:03:33.607Z,1023.2
2016-12-25T12:04:36.554Z,1023.1
2016-12-25T12:05:40.006Z,1023.1
2016-12-25T12:06:43.460Z,1023.2
2016-12-25T12:07:46.410Z,1023.2
2016-12-25T12:08:49.860Z,1023.2
2016-12-25T12:09:53.313Z,1023.2
2016-12-25T12:10:56.259Z,1023.2
2016-12-25T12:11:59.708Z,1023.2
2016-12-25T12:13:03.157Z,1023.2
2016-12-25T12:15:09.518Z,1023.2
2016-12-25T12:16:12.963Z,1023.3
2016-12-25T12:17:15.915Z,1023.2
2016-12-25T12:18:19.513Z,1023.4
2016-12-25T12:19:22.461Z,1023.4
2016-12-25T12:20:25.937Z,1023.4
2016-12-25T12:21:29.393Z,1023.5
2016-12-25T12:22:32.346Z,1023.5
2016-12-25T12:23:35.798Z,1023.5
2016-12-25T12:24:39.248Z,1023.5
2016-12-25T12:25:42.195Z,1023.6
2016-12-25T12:27:49.056Z,1023.7
2016-12-25T12:28:52.004Z,1023.6
2016-12-25T12:29:55.461Z,1023.7
2016-12-25T12:30:58.916Z,1023.7
2016-12-25T12:32:01.867Z,1023.7
2016-12-25T12:33:05.321Z,1023.7
2016-12-25T12:34:08.777Z,1023.7
2016-12-25T12:35:11.727Z,1023.8
2016-12-25T12:36:15.177Z,1023.8
2016-12-25T12:37:18.630Z,1023.8
2016-12-25T12:38:21.583Z,1023.8
2016-12-25T12:39:25.036Z,1023.8
2016-12-25T12:40:28.489Z,1023.8
2016-12-25T12:41:31.451Z,1023.7
2016-12-25T12:42:34.905Z,1023.8
2016-12-25T12:43:38.353Z,1023.8
2016-12-25T12:44:41.307Z,1023.8
2016-12-25T12:45:44.756Z,1023.9
2016-12-25T12:46:48.205Z,1023.8
2016-12-25T12:47:51.157Z,1023.8
2016-12-25T12:48:54.609Z,1023.8
2016-12-25T12:49:57.690Z,1023.9
2016-12-25T12:51:01.152Z,1023.9
2016-12-25T12:52:04.605Z,1023.9
2016-12-25T12:53:07.554Z,1023.9
2016-12-25T12:54:11.005Z,1024
2016-12-25T12:55:14.457Z,1024
2016-12-25T12:56:17.403Z,1020.5
2016-12-25T12:57:20.858Z,1020.3
2016-12-25T12:58:24.313Z,1020.5
2016-12-25T12:59:27.259Z,1020.5
2016-12-25T13:00:30.707Z,1020.5
2016-12-25T13:02:37.573Z,1020.5
2016-12-25T13:03:40.523Z,1020.5
2016-12-25T13:04:43.974Z,1020.5
2016-12-25T13:05:47.425Z,1020.6
2016-12-25T13:06:50.384Z,1020.6
2016-12-25T13:07:53.831Z,1020.5
2016-12-25T13:08:57.283Z,1020.5
2016-12-25T13:10:00.232Z,1020.6
2016-12-25T13:11:03.817Z,1020.6
2016-12-25T13:12:06.761Z,1020.6
2016-12-25T13:13:10.215Z,1020.5
2016-12-25T13:14:13.664Z,1020.5
2016-12-25T13:15:16.609Z,1020.5
2016-12-25T13:16:20.059Z,1020.5
2016-12-25T13:17:23.515Z,1020.5
2016-12-25T13:18:26.473Z,1020.5
2016-12-25T13:20:33.330Z,1020.6
2016-12-25T13:22:39.698Z,1020.5
2016-12-25T13:23:43.147Z,1020.5
2016-12-25T13:24:46.596Z,1020.5
2016-12-25T13:25:49.542Z,1020.5
2016-12-25T13:26:52.995Z,1020.6
2016-12-25T13:27:56.447Z,1020.5
2016-12-25T13:28:59.390Z,1020.5
2016-12-25T13:30:02.835Z,1020.6
2016-12-25T13:31:05.901Z,1020.6
2016-12-25T13:32:09.358Z,1020.6
2016-12-25T13:33:12.808Z,1020.5
2016-12-25T13:34:15.750Z,1020.5
2016-12-25T13:35:19.199Z,1020.6
2016-12-25T13:36:22.656Z,1020.5
2016-12-25T13:37:25.741Z,1020.5
2016-12-25T13:38:29.193Z,1020.6
2016-12-25T13:39:32.652Z,1020.6
2016-12-25T13:40:35.596Z,1020.5
2016-12-25T13:41:39.046Z,1020.6
2016-12-25T13:42:42.501Z,1020.7
2016-12-25T13:43:45.445Z,1020.6
2016-12-25T13:44:48.894Z,1020.6
2016-12-25T13:45:52.343Z,1020.7
2016-12-25T13:46:55.290Z,1020.5
2016-12-25T13:47:58.741Z,1020.6
2016-12-25T13:49:02.193Z,1020.6